Strona główna
METAR-TAF:

METAR-TAF

Lotnisko :

Port lotniczy Kluż-Napoka

Kluż-Napoka, Rumunia

Szerokość geograficzna: 46-47N, Długość geograficzna: 023-34E, wysokość: 410 m

Aktualna obserwacja pogody

Raport powstał 39 minut temu, godzina 00:00 UTC
Wiatr 2 kt z kierunków zmiennych
Temperatura -7°C
Wilgotność 57%
Ciśnienie 1031 hPa
Widzialność 10 km lub więcej
Brak chmur poniżej 1500 m i brak chmur cumulonimbus

METAR: LRCL 230000Z VRB02KT CAVOK M07/M14 Q1031 R07/15//95

czas: 02:39 (00:39 UTC)

Prognoza

Raport powstał 1 godzina i 39 minut temu, godzina 23:00 UTC
Prognoza ważna od 23 godzina 00 UTC do 23 godzina 09 UTC
Wiatr 4 kt z kierunków zmiennych
Widzialność 10 km lub więcej
Brak chmur poniżej 1500 m i brak chmur cumulonimbus

TAF: LRCL 222300Z 2300/2309 VRB04KT CAVOK

Obserwacja i prognoza pogody dla ponad 4000 lotnisk (raport METAR i TAF).

Dostępne stacje oznaczono żółtymi i czerwonymi punktami na mapie.

Najedź kursorem aby zobaczyć nazwę stacji.

Kliknij aby zobaczyć obserwacje i prognozy pogody.

Aby zmienić mapę: kliknij na zielony przycisk z czarnym krzyżykiem, aby powiększyć; na zielony przycisk z myślnikiem, aby pomniejszyć; na zielone strzałki, aby przejść do map sąsiednich.


METAR-TAF: